CDT,Max TemperatureF,Mean TemperatureF,Min TemperatureF,Max Dew PointF,MeanDew PointF,Min DewpointF,Max Humidity, Mean Humidity, Min Humidity, Max Sea Level PressureIn, Mean Sea Level PressureIn, Min Sea Level PressureIn, Max VisibilityMiles, Mean VisibilityMiles, Min VisibilityMiles, Max Wind SpeedMPH, Mean Wind SpeedMPH, Max Gust SpeedMPH,PrecipitationIn, CloudCover, Events, WindDirDegrees
2012-10-1,69,58,46,48,37,27,72,44,24,30.02,29.98,29.90,10,10,7,18,7,30,0.00,1,,351
2012-10-2,71,54,37,34,26,16,70,38,12,30.01,29.93,29.84,10,10,5,12,5,18,0.00,0,,208
2012-10-3,78,61,44,39,29,23,66,34,13,29.93,29.84,29.74,10,10,7,26,8,32,0.00,0,,168
2012-10-4,51,42,33,39,31,25,81,61,40,30.30,30.16,29.93,10,10,7,32,21,40,0.00,3,,315
2012-10-5,50,38,26,28,21,16,86,58,27,30.30,30.26,30.21,10,10,7,23,6,30,0.00,0,,308
2012-10-6,44,34,24,25,20,18,80,57,34,30.34,30.29,30.26,10,10,10,13,7,20,0.00,4,,337
2012-10-7,57,39,21,25,18,14,86,51,21,30.27,30.09,29.90,10,10,10,23,5,26,0.00,0,,219
2012-10-8,71,53,35,45,29,19,76,45,14,29.89,29.79,29.68,10,10,3,24,11,33,0.00,3,Rain,224
2012-10-9,53,42,32,46,34,25,93,65,35,30.09,29.93,29.79,10,10,10,28,10,36,0.10,5,Rain,298
2012-10-10,60,42,24,28,24,19,86,54,23,30.17,30.06,29.93,10,10,10,17,8,23,0.00,0,,245
2012-10-11,48,42,35,32,26,19,66,50,39,30.39,30.13,29.91,10,10,10,17,11,25,0.00,0,,21
2012-10-12,57,42,26,43,18,9,82,46,16,30.39,30.28,29.97,10,10,10,17,8,24,0.00,2,,117
2012-10-13,69,58,46,55,50,41,100,80,56,29.97,29.74,29.65,10,8,2,18,10,24,0.00,6,Rain,196
2012-10-14,62,52,42,48,36,30,93,59,30,29.95,29.85,29.68,10,9,3,21,11,28,0.00,0,,341
2012-10-15,71,52,33,41,34,28,81,51,27,29.97,29.88,29.71,10,10,10,14,5,21,0.00,0,,175
2012-10-16,73,62,51,48,43,39,77,56,29,29.70,29.51,29.36,10,10,7,15,8,21,0.00,0,,239
2012-10-17,62,52,42,50,38,28,88,59,44,29.49,29.39,29.23,10,10,10,37,18,46,0.01,6,Rain,281
2012-10-18,46,42,39,43,38,30,100,87,53,29.51,29.40,29.31,10,9,2,37,28,45,0.92,8,Rain,304
2012-10-19,42,40,39,39,38,37,93,88,81,29.79,29.69,29.52,10,9,3,23,16,33,0.04,8,Rain,327
2012-10-20,59,44,30,45,39,30,100,81,51,29.80,29.76,29.70,10,8,0,14,4,16,0.00,3,Fog-Snow,157
2012-10-21,69,56,42,48,42,37,87,67,35,29.87,29.76,29.69,10,10,7,15,8,21,0.00,1,,121
2012-10-22,57,52,48,54,47,43,94,80,72,29.89,29.84,29.75,10,8,4,13,9,18,0.00,7,,52
2012-10-23,57,54,48,57,53,48,100,94,88,29.79,29.73,29.69,10,3,0,13,6,,0.10,7,Fog-Rain,183
2012-10-24,55,48,41,52,45,36,100,88,71,29.85,29.81,29.79,10,4,0,17,8,24,0.05,8,Fog,14
2012-10-25,39,34,30,36,30,27,100,85,70,30.29,30.03,29.75,10,8,1,22,16,31,0.56,8,Rain-Snow,325
2012-10-26,37,34,30,28,25,21,81,68,52,30.45,30.39,30.29,10,10,10,16,11,23,0.00,8,,305
2012-10-27,41,32,23,28,23,19,86,69,52,30.38,30.31,30.25,10,10,10,9,4,,0.00,2,,179
2012-10-28,48,39,30,30,28,27,87,67,46,30.28,30.23,30.17,10,10,10,18,7,24,0.00,4,,160
2012-10-29,53,45,37,30,28,27,70,56,38,30.21,30.15,30.11,10,10,10,20,10,26,0.00,2,,153
2012-10-30,46,40,33,30,27,21,87,62,37,30.13,30.09,30.05,10,10,10,10,6,16,0.00,5,Rain,100
2012-10-31,57,42,28,34,30,25,87,63,36,30.06,30.01,29.96,10,10,7,8,3,,0.00,0,,213